createdAt,value
2023-03-04T00:00:07.332Z,96293.34
2023-03-04T00:02:38.235Z,96287.09
2023-03-04T00:05:07.133Z,96292.88
2023-03-04T00:07:35.447Z,96290.81
2023-03-04T00:10:03.629Z,96287.00
2023-03-04T00:12:32.242Z,96286.00
2023-03-04T00:15:00.332Z,96288.00
2023-03-04T00:17:31.630Z,96282.94
2023-03-04T00:19:59.779Z,96288.19
2023-03-04T00:22:27.841Z,96284.47
2023-03-04T00:24:55.912Z,96287.38
2023-03-04T00:27:24.329Z,96290.44
2023-03-04T00:29:52.414Z,96286.72
2023-03-04T00:32:20.591Z,96293.53
2023-03-04T00:34:50.117Z,96297.13
2023-03-04T00:37:18.201Z,96305.53
2023-03-04T00:39:46.420Z,96298.81
2023-03-04T00:42:14.819Z,96303.53
2023-03-04T00:44:42.931Z,96296.50
2023-03-04T00:47:11.050Z,96294.03
2023-03-04T00:49:39.125Z,96290.59
2023-03-04T00:52:08.760Z,96292.41
2023-03-04T00:54:37.105Z,96287.81
2023-03-04T00:57:05.209Z,96280.13
2023-03-04T00:59:33.433Z,96277.31
2023-03-04T01:02:01.583Z,96276.16
2023-03-04T01:04:31.350Z,96282.22
2023-03-04T01:07:01.315Z,96270.91
2023-03-04T01:09:31.912Z,96259.63
2023-03-04T01:11:59.945Z,96257.16
2023-03-04T01:14:28.134Z,96258.81
2023-03-04T01:16:56.337Z,96255.53
2023-03-04T01:19:24.576Z,96253.66
2023-03-04T01:21:53.845Z,96242.78
2023-03-04T01:24:23.281Z,96245.22
2023-03-04T01:26:52.739Z,96237.94
2023-03-04T01:29:22.836Z,96235.81
2023-03-04T01:31:50.912Z,96232.03
2023-03-04T01:34:21.816Z,96231.22
2023-03-04T01:36:49.920Z,96218.66
2023-03-04T01:39:19.982Z,96225.97
2023-03-04T01:41:48.185Z,96223.38
2023-03-04T01:44:17.718Z,96213.34
2023-03-04T01:46:49.323Z,96206.53
2023-03-04T01:49:17.924Z,96215.41
2023-03-04T01:51:49.162Z,96211.16
2023-03-04T01:54:17.324Z,96213.78
2023-03-04T01:56:46.033Z,96209.69
2023-03-04T01:59:15.131Z,96200.41
2023-03-04T02:01:46.338Z,96203.75
2023-03-04T02:04:14.482Z,96204.56
2023-03-04T02:06:42.544Z,96200.13
2023-03-04T02:09:10.808Z,96206.00
2023-03-04T02:11:39.181Z,96207.28
2023-03-04T02:14:07.372Z,96198.59
2023-03-04T02:16:35.796Z,96196.50
2023-03-04T02:19:05.808Z,96193.72
2023-03-04T02:21:34.333Z,96189.75
2023-03-04T02:24:07.237Z,96192.00
2023-03-04T02:26:36.700Z,96186.56
2023-03-04T02:29:05.100Z,96179.34
2023-03-04T02:31:35.171Z,96176.25
2023-03-04T02:34:04.632Z,96167.97
2023-03-04T02:36:32.700Z,96172.41
2023-03-04T02:39:03.570Z,96162.34
2023-03-04T02:41:32.426Z,96167.22
2023-03-04T02:44:02.863Z,96158.72
2023-03-04T02:46:31.116Z,96163.16
2023-03-04T02:48:59.180Z,96162.16
2023-03-04T02:51:27.406Z,96160.00
2023-03-04T02:53:55.491Z,96155.00
2023-03-04T02:56:24.850Z,96150.84
2023-03-04T02:58:52.940Z,96158.72
2023-03-04T03:01:22.618Z,96148.84
2023-03-04T03:03:50.813Z,96151.91
2023-03-04T03:06:19.101Z,96150.28
2023-03-04T03:08:47.616Z,96141.41
2023-03-04T03:11:15.992Z,96146.47
2023-03-04T03:13:44.056Z,96144.84
2023-03-04T03:16:12.245Z,96145.84
2023-03-04T03:18:41.839Z,96146.31
2023-03-04T03:21:10.426Z,96149.09
2023-03-04T03:23:38.829Z,96147.94
2023-03-04T03:26:08.195Z,96151.97
2023-03-04T03:28:36.271Z,96145.72
2023-03-04T03:31:04.560Z,96145.56
2023-03-04T03:33:32.638Z,96144.38
2023-03-04T03:36:02.581Z,96140.75
2023-03-04T03:38:30.682Z,96147.00
2023-03-04T03:40:58.649Z,96142.56
2023-03-04T03:43:26.806Z,96140.59
2023-03-04T03:45:54.935Z,96137.75
2023-03-04T03:48:23.405Z,96137.75
2023-03-04T03:50:51.482Z,96136.75
2023-03-04T03:53:21.155Z,96134.75
2023-03-04T03:55:49.215Z,96131.16
2023-03-04T03:58:17.236Z,96129.34
2023-03-04T04:00:45.556Z,96129.16
2023-03-04T04:03:14.316Z,96125.91
2023-03-04T04:05:42.388Z,96125.72
2023-03-04T04:08:12.782Z,96120.28
2023-03-04T04:10:42.212Z,96122.28
2023-03-04T04:13:10.238Z,96119.28
2023-03-04T04:15:38.961Z,96121.47
2023-03-04T04:18:07.093Z,96123.50
2023-03-04T04:20:35.154Z,96122.34
2023-03-04T04:23:03.227Z,96117.72
2023-03-04T04:25:31.299Z,96124.59
2023-03-04T04:28:00.925Z,96125.41
2023-03-04T04:30:29.253Z,96128.84
2023-03-04T04:32:57.326Z,96128.84
2023-03-04T04:35:25.430Z,96126.84
2023-03-04T04:37:53.511Z,96126.84
2023-03-04T04:40:21.712Z,96131.06
2023-03-04T04:42:49.985Z,96133.91
2023-03-04T04:45:19.835Z,96130.09
2023-03-04T04:47:47.977Z,96139.41
2023-03-04T04:50:16.041Z,96132.97
2023-03-04T04:52:44.087Z,96129.53
2023-03-04T04:55:12.252Z,96130.53
2023-03-04T04:57:40.590Z,96132.34
2023-03-04T05:00:11.018Z,96134.78
2023-03-04T05:02:40.445Z,96127.97
2023-03-04T05:05:09.035Z,96124.34
2023-03-04T05:07:37.064Z,96134.03
2023-03-04T05:10:06.091Z,96134.84
2023-03-04T05:12:34.154Z,96140.25
2023-03-04T05:15:02.298Z,96141.91
2023-03-04T05:17:30.320Z,96141.91
2023-03-04T05:19:59.789Z,96140.72
2023-03-04T05:22:27.832Z,96142.34
2023-03-04T05:24:57.309Z,96135.28
2023-03-04T05:27:25.457Z,96140.91
2023-03-04T05:29:55.570Z,96149.41
2023-03-04T05:32:23.682Z,96145.97
2023-03-04T05:34:51.737Z,96144.97
2023-03-04T05:37:21.486Z,96148.22
2023-03-04T05:39:49.549Z,96145.41
2023-03-04T05:42:17.628Z,96136.50
2023-03-04T05:44:46.191Z,96145.41
2023-03-04T05:47:14.168Z,96140.75
2023-03-04T05:49:42.694Z,96144.19
2023-03-04T05:52:11.273Z,96143.22
2023-03-04T05:54:40.736Z,96139.41
2023-03-04T05:57:08.833Z,96131.53
2023-03-04T05:59:36.921Z,96146.28
2023-03-04T06:02:05.024Z,96140.22
2023-03-04T06:04:33.495Z,96145.28
2023-03-04T06:07:01.541Z,96145.09
2023-03-04T06:09:29.557Z,96139.03
2023-03-04T06:11:59.003Z,96140.44
2023-03-04T06:14:27.129Z,96140.44
2023-03-04T06:16:55.468Z,96149.13
2023-03-04T06:19:23.547Z,96139.28
2023-03-04T06:21:51.568Z,96139.28
2023-03-04T06:24:19.864Z,96156.28
2023-03-04T06:26:47.962Z,96148.19
2023-03-04T06:29:17.401Z,96152.06
2023-03-04T06:31:45.749Z,96149.63
2023-03-04T06:34:13.839Z,96152.06
2023-03-04T06:36:41.886Z,96154.50
2023-03-04T06:39:09.942Z,96156.16
2023-03-04T06:41:38.005Z,96146.44
2023-03-04T06:44:06.635Z,96147.09
2023-03-04T06:46:36.375Z,96152.75
2023-03-04T06:49:04.550Z,96159.44
2023-03-04T06:51:32.568Z,96152.38
2023-03-04T06:54:00.720Z,96162.69
2023-03-04T06:56:28.805Z,96159.88
2023-03-04T06:58:57.181Z,96156.22
2023-03-04T07:01:26.180Z,96156.03
2023-03-04T07:03:55.971Z,96160.94
2023-03-04T07:06:24.930Z,96163.38
2023-03-04T07:08:53.096Z,96160.56
2023-03-04T07:11:22.097Z,96165.41
2023-03-04T07:13:50.302Z,96163.03
2023-03-04T07:16:20.092Z,96163.84
2023-03-04T07:18:48.269Z,96173.78
2023-03-04T07:21:17.895Z,96164.72
2023-03-04T07:23:45.949Z,96163.53
2023-03-04T07:26:14.363Z,96160.72
2023-03-04T07:28:42.883Z,96167.19
2023-03-04T07:31:12.683Z,96165.19
2023-03-04T07:33:40.737Z,96171.88
2023-03-04T07:36:08.956Z,96168.66
2023-03-04T07:38:38.708Z,96163.22
2023-03-04T07:41:06.799Z,96157.59
2023-03-04T07:43:34.882Z,96160.84
2023-03-04T07:46:03.078Z,96158.63
2023-03-04T07:48:31.229Z,96152.19
2023-03-04T07:51:09.672Z,96162.09
2023-03-04T07:53:39.473Z,96155.66
2023-03-04T07:56:08.520Z,96147.56
2023-03-04T07:58:36.535Z,96149.00
2023-03-04T08:01:10.586Z,96165.41
2023-03-04T08:03:38.670Z,96163.19
2023-03-04T08:06:07.758Z,96153.91
2023-03-04T08:08:35.809Z,96161.63
2023-03-04T08:11:06.973Z,96159.56
2023-03-04T08:13:35.021Z,96149.69
2023-03-04T08:16:03.220Z,96153.75
2023-03-04T08:18:31.725Z,96160.63
2023-03-04T08:20:59.816Z,96152.34
2023-03-04T08:23:27.947Z,96155.59
2023-03-04T08:25:56.008Z,96150.94
2023-03-04T08:28:25.452Z,96155.63
2023-03-04T08:30:56.814Z,96149.34
2023-03-04T08:33:25.230Z,96151.97
2023-03-04T08:35:54.122Z,96156.03
2023-03-04T08:38:22.208Z,96151.41
2023-03-04T08:40:54.039Z,96149.38
2023-03-04T08:43:22.113Z,96153.66
2023-03-04T08:45:51.919Z,96151.84
2023-03-04T08:48:19.974Z,96146.16
2023-03-04T08:50:48.248Z,96155.47
2023-03-04T08:53:16.853Z,96156.28
2023-03-04T08:55:44.985Z,96152.84
2023-03-04T08:58:13.472Z,96154.09
2023-03-04T09:00:43.980Z,96150.03
2023-03-04T09:03:13.636Z,96137.31
2023-03-04T09:05:41.822Z,96149.66
2023-03-04T09:08:09.866Z,96147.03
2023-03-04T09:10:37.919Z,96147.84
2023-03-04T09:13:06.389Z,96147.03
2023-03-04T09:15:35.624Z,96152.91
2023-03-04T09:18:04.085Z,96144.78
2023-03-04T09:20:33.519Z,96149.47
2023-03-04T09:23:01.601Z,96136.75
2023-03-04T09:25:29.693Z,96147.03
2023-03-04T09:27:58.064Z,96146.03
2023-03-04T09:30:28.028Z,96140.38
2023-03-04T09:32:57.468Z,96139.00
2023-03-04T09:35:25.636Z,96141.63
2023-03-04T09:37:55.122Z,96145.69
2023-03-04T09:40:24.439Z,96139.00
2023-03-04T09:42:54.133Z,96130.28
2023-03-04T09:45:23.277Z,96139.00
2023-03-04T09:47:52.292Z,96137.59
2023-03-04T09:50:20.404Z,96139.44
2023-03-04T09:52:58.505Z,96136.81
2023-03-04T09:55:30.266Z,96126.88
2023-03-04T09:58:00.318Z,96122.41
2023-03-04T10:00:33.970Z,96119.81
2023-03-04T10:03:18.021Z,96116.97
2023-03-04T10:05:51.228Z,96118.78
2023-03-04T10:08:32.408Z,96120.19
2023-03-04T10:11:02.112Z,96116.16
2023-03-04T10:13:33.367Z,96120.41
2023-03-04T10:16:01.487Z,96125.88
2023-03-04T10:18:32.039Z,96122.63
2023-03-04T10:21:02.049Z,96119.38
2023-03-04T10:23:32.666Z,96122.84
2023-03-04T10:26:00.877Z,96111.91
2023-03-04T10:28:30.866Z,96116.34
2023-03-04T10:31:00.735Z,96119.00
2023-03-04T10:33:30.589Z,96119.19
2023-03-04T10:36:02.553Z,96113.31
2023-03-04T10:38:33.628Z,96114.31
2023-03-04T10:41:01.850Z,96105.78
2023-03-04T10:43:30.017Z,96101.31
2023-03-04T10:45:58.813Z,96100.91
2023-03-04T10:48:28.580Z,96092.19
2023-03-04T10:50:56.835Z,96103.13
2023-03-04T10:53:29.717Z,96095.44
2023-03-04T10:55:59.190Z,96094.19
2023-03-04T10:58:27.279Z,96089.75
2023-03-04T11:01:03.809Z,96096.63
2023-03-04T11:03:33.418Z,96097.22
2023-03-04T11:06:06.745Z,96080.38
2023-03-04T11:08:34.854Z,96085.03
2023-03-04T11:11:04.382Z,96078.72
2023-03-04T11:13:32.482Z,96076.69
2023-03-04T11:16:02.190Z,96077.50
2023-03-04T11:18:42.048Z,96068.34
2023-03-04T11:21:10.478Z,96070.97
2023-03-04T11:23:42.156Z,96074.06
2023-03-04T11:26:13.949Z,96065.34
2023-03-04T11:28:43.886Z,96068.19
2023-03-04T11:31:15.790Z,96066.34
2023-03-04T11:33:45.665Z,96067.78
2023-03-04T11:36:30.222Z,96065.13
2023-03-04T11:38:58.282Z,96061.69
2023-03-04T11:41:32.160Z,96055.41
2023-03-04T11:44:00.527Z,96058.03
2023-03-04T11:46:55.420Z,96055.16
2023-03-04T11:49:50.326Z,96058.41
2023-03-04T11:52:22.413Z,96047.84
2023-03-04T11:54:58.016Z,96044.41
2023-03-04T11:57:32.477Z,96049.28
2023-03-04T12:00:05.654Z,96044.19
2023-03-04T12:02:42.106Z,96042.38
2023-03-04T12:05:20.978Z,96042.97
2023-03-04T12:08:27.885Z,96041.75
2023-03-04T12:11:02.041Z,96033.84
2023-03-04T12:13:48.262Z,96035.06
2023-03-04T12:16:35.510Z,96035.66
2023-03-04T12:19:12.356Z,96028.94
2023-03-04T12:21:52.285Z,96029.72
2023-03-04T12:24:39.741Z,96021.34
2023-03-04T12:27:11.627Z,96018.06
2023-03-04T12:29:43.131Z,96013.59
2023-03-04T12:32:14.476Z,96010.16
2023-03-04T12:35:02.524Z,96008.94
2023-03-04T12:37:40.325Z,96007.34
2023-03-04T12:40:18.459Z,96012.63
2023-03-04T12:42:55.511Z,96006.72
2023-03-04T12:45:26.628Z,96010.16
2023-03-04T12:48:00.615Z,96001.44
2023-03-04T12:50:38.836Z,96001.44
2023-03-04T12:53:17.455Z,95994.13
2023-03-04T12:55:46.652Z,96005.47
2023-03-04T12:58:17.598Z,95990.25
2023-03-04T13:00:51.890Z,95994.28
2023-03-04T13:03:22.556Z,95995.06
2023-03-04T13:06:00.749Z,95984.53
2023-03-04T13:08:33.603Z,95982.28
2023-03-04T13:11:03.580Z,95983.72
2023-03-04T13:13:39.921Z,95987.97
2023-03-04T13:16:30.159Z,95984.72
2023-03-04T13:18:58.747Z,95981.28
2023-03-04T13:21:28.148Z,95984.38
2023-03-04T13:23:56.755Z,95977.69
2023-03-04T13:26:29.342Z,95980.72
2023-03-04T13:29:34.298Z,95977.72
2023-03-04T13:32:05.414Z,95976.72
2023-03-04T13:34:50.644Z,95976.47
2023-03-04T13:37:33.411Z,95974.22
2023-03-04T13:40:33.714Z,95973.22
2023-03-04T13:43:26.563Z,95968.34
2023-03-04T13:45:54.725Z,95966.72
2023-03-04T13:48:32.674Z,95973.81
2023-03-04T13:51:00.884Z,95972.00
2023-03-04T13:53:42.559Z,95956.97
2023-03-04T13:56:27.198Z,95955.75
2023-03-04T13:59:17.970Z,95954.53
2023-03-04T14:01:52.643Z,95955.13
2023-03-04T14:04:23.216Z,95957.31
2023-03-04T14:06:51.507Z,95950.22
2023-03-04T14:09:21.932Z,95949.84
2023-03-04T14:11:50.172Z,95948.22
2023-03-04T14:14:19.912Z,95946.41
2023-03-04T14:16:50.253Z,95938.47
2023-03-04T14:19:22.391Z,95934.81
2023-03-04T14:21:50.440Z,95935.38
2023-03-04T14:24:19.545Z,95928.88
2023-03-04T14:26:47.769Z,95936.59
2023-03-04T14:29:23.267Z,95925.63
2023-03-04T14:31:51.694Z,95927.47
2023-03-04T14:34:25.136Z,95933.94
2023-03-04T14:36:53.238Z,95928.00
2023-03-04T14:39:21.355Z,95924.13
2023-03-04T14:41:49.433Z,95923.13
2023-03-04T14:44:22.432Z,95924.53
2023-03-04T14:47:06.612Z,95924.09
2023-03-04T14:49:37.402Z,95926.97
2023-03-04T14:52:05.511Z,95924.31
2023-03-04T14:54:35.643Z,95914.56
2023-03-04T14:57:26.738Z,95910.91
2023-03-04T14:59:55.058Z,95919.84
2023-03-04T15:02:31.118Z,95911.53
2023-03-04T15:05:01.863Z,95915.00
2023-03-04T15:07:34.979Z,95911.97
2023-03-04T15:10:04.637Z,95915.25
2023-03-04T15:12:33.856Z,95911.81
2023-03-04T15:15:02.499Z,95910.19
2023-03-04T15:17:37.752Z,95905.72
2023-03-04T15:20:31.342Z,95903.72
2023-03-04T15:23:01.443Z,95906.00
2023-03-04T15:25:29.693Z,95901.75
2023-03-04T15:27:57.958Z,95907.81
2023-03-04T15:30:27.558Z,95902.75
2023-03-04T15:32:56.191Z,95897.91
2023-03-04T15:35:24.602Z,95912.91
2023-03-04T15:37:54.955Z,95906.25
2023-03-04T15:40:28.046Z,95906.69
2023-03-04T15:42:56.515Z,95898.16
2023-03-04T15:45:25.633Z,95894.13
2023-03-04T15:47:53.687Z,95891.94
2023-03-04T15:50:22.837Z,95895.13
2023-03-04T15:52:51.245Z,95893.38
2023-03-04T15:55:21.439Z,95899.88
2023-03-04T15:57:51.263Z,95899.88
2023-03-04T16:00:20.001Z,95900.69
2023-03-04T16:02:48.777Z,95906.75
2023-03-04T16:05:18.226Z,95906.97
2023-03-04T16:07:46.545Z,95904.56
2023-03-04T16:10:22.607Z,95903.75
2023-03-04T16:12:51.043Z,95899.72
2023-03-04T16:15:20.085Z,95896.69
2023-03-04T16:17:48.476Z,95897.94
2023-03-04T16:20:17.656Z,95903.41
2023-03-04T16:22:45.736Z,95898.34
2023-03-04T16:25:13.851Z,95901.63
2023-03-04T16:27:43.307Z,95904.91
2023-03-04T16:30:14.871Z,95905.53
2023-03-04T16:32:43.257Z,95897.25
2023-03-04T16:35:11.383Z,95899.28
2023-03-04T16:37:39.502Z,95894.81
2023-03-04T16:40:08.947Z,95895.03
2023-03-04T16:42:37.058Z,95894.00
2023-03-04T16:45:07.889Z,95887.97
2023-03-04T16:47:36.117Z,95895.47
2023-03-04T16:50:04.512Z,95890.81
2023-03-04T16:52:33.181Z,95885.38
2023-03-04T16:55:01.360Z,95890.88
2023-03-04T16:57:31.596Z,95894.72
2023-03-04T17:00:01.505Z,95887.84
2023-03-04T17:02:31.111Z,95891.50
2023-03-04T17:04:59.472Z,95888.28
2023-03-04T17:07:27.595Z,95891.13
2023-03-04T17:09:55.696Z,95891.31
2023-03-04T17:12:23.781Z,95888.06
2023-03-04T17:14:52.159Z,95894.16
2023-03-04T17:17:20.227Z,95894.38
2023-03-04T17:19:50.071Z,95893.34
2023-03-04T17:22:18.129Z,95908.34
2023-03-04T17:24:46.216Z,95898.00
2023-03-04T17:27:14.573Z,95906.28
2023-03-04T17:29:42.655Z,95907.91
2023-03-04T17:32:10.817Z,95897.59
2023-03-04T17:34:38.950Z,95906.72
2023-03-04T17:37:08.418Z,95902.88
2023-03-04T17:39:36.503Z,95907.34
2023-03-04T17:42:05.596Z,95904.31
2023-03-04T17:44:33.719Z,95903.69
2023-03-04T17:47:01.763Z,95905.09
2023-03-04T17:49:29.836Z,95897.41
2023-03-04T17:51:57.891Z,95906.94
2023-03-04T17:54:28.285Z,95898.81
2023-03-04T17:56:56.349Z,95909.75
2023-03-04T17:59:24.500Z,95911.78
2023-03-04T18:01:54.288Z,95905.72
2023-03-04T18:04:22.613Z,95903.06
2023-03-04T18:06:50.700Z,95904.91
2023-03-04T18:09:19.090Z,95904.91
2023-03-04T18:11:48.506Z,95914.03
2023-03-04T18:14:16.605Z,95909.34
2023-03-04T18:16:44.708Z,95902.25
2023-03-04T18:19:12.806Z,95894.56
2023-03-04T18:21:41.184Z,95900.44
2023-03-04T18:24:09.735Z,95900.44
2023-03-04T18:26:37.819Z,95895.38
2023-03-04T18:29:07.265Z,95903.69
2023-03-04T18:31:36.809Z,95895.78
2023-03-04T18:34:04.998Z,95892.53
2023-03-04T18:36:33.585Z,95900.84
2023-03-04T18:39:04.628Z,95895.56
2023-03-04T18:41:32.669Z,95898.41
2023-03-04T18:44:00.788Z,95893.75
2023-03-04T18:46:32.752Z,95889.09
2023-03-04T18:49:03.403Z,95895.97
2023-03-04T18:51:31.619Z,95896.38
2023-03-04T18:53:59.746Z,95903.88
2023-03-04T18:56:31.569Z,95892.53
2023-03-04T18:58:59.676Z,95895.38
2023-03-04T19:01:28.076Z,95896.19
2023-03-04T19:03:59.142Z,95892.31
2023-03-04T19:06:27.300Z,95888.66
2023-03-04T19:08:55.358Z,95897.81
2023-03-04T19:11:24.787Z,95895.16
2023-03-04T19:13:52.855Z,95886.00
2023-03-04T19:16:21.294Z,95890.25
2023-03-04T19:18:49.361Z,95891.06
2023-03-04T19:21:19.468Z,95901.00
2023-03-04T19:23:47.552Z,95896.56
2023-03-04T19:26:15.628Z,95892.72
2023-03-04T19:28:43.700Z,95894.56
2023-03-04T19:31:12.269Z,95896.59
2023-03-04T19:33:40.863Z,95901.25
2023-03-04T19:36:10.156Z,95891.94
2023-03-04T19:38:39.576Z,95899.22
2023-03-04T19:41:11.276Z,95893.94
2023-03-04T19:43:39.700Z,95902.66
2023-03-04T19:46:08.800Z,95906.31
2023-03-04T19:48:37.597Z,95908.97
2023-03-04T19:51:05.954Z,95900.03
2023-03-04T19:53:34.973Z,95895.41
2023-03-04T19:56:04.950Z,95892.78
2023-03-04T19:58:33.007Z,95896.59
2023-03-04T20:01:01.078Z,95898.81
2023-03-04T20:03:29.204Z,95900.22
2023-03-04T20:06:03.709Z,95895.16
2023-03-04T20:08:31.789Z,95906.28
2023-03-04T20:11:00.199Z,95898.81
2023-03-04T20:13:29.716Z,95890.31
2023-03-04T20:15:57.844Z,95897.41
2023-03-04T20:18:25.931Z,95892.31
2023-03-04T20:20:57.249Z,95896.56
2023-03-04T20:23:27.145Z,95906.69
2023-03-04T20:25:57.022Z,95902.44
2023-03-04T20:28:25.280Z,95909.91
2023-03-04T20:30:54.760Z,95906.69
2023-03-04T20:33:22.835Z,95907.31
2023-03-04T20:35:51.060Z,95904.69
2023-03-04T20:38:19.443Z,95902.25
2023-03-04T20:40:47.465Z,95905.09
2023-03-04T20:43:15.553Z,95900.03
2023-03-04T20:45:43.662Z,95892.94
2023-03-04T20:48:13.113Z,95905.09
2023-03-04T20:50:41.634Z,95904.09
2023-03-04T20:53:09.671Z,95906.13
2023-03-04T20:55:37.740Z,95910.78
2023-03-04T20:58:07.590Z,95907.53
2023-03-04T21:00:38.433Z,95901.66
2023-03-04T21:03:06.536Z,95898.22
2023-03-04T21:05:36.011Z,95901.66
2023-03-04T21:08:04.108Z,95897.59
2023-03-04T21:10:32.169Z,95890.50
2023-03-04T21:13:00.216Z,95892.34
2023-03-04T21:15:28.289Z,95898.41
2023-03-04T21:17:56.642Z,95897.81
2023-03-04T21:20:24.811Z,95897.81
2023-03-04T21:22:54.277Z,95897.59
2023-03-04T21:25:23.493Z,95896.59
2023-03-04T21:27:51.512Z,95897.00
2023-03-04T21:30:19.977Z,95894.00
2023-03-04T21:32:48.161Z,95900.28
2023-03-04T21:35:16.317Z,95896.84
2023-03-04T21:37:44.390Z,95894.19
2023-03-04T21:40:14.657Z,95898.66
2023-03-04T21:42:42.764Z,95894.19
2023-03-04T21:45:11.981Z,95893.38
2023-03-04T21:47:40.384Z,95897.25
2023-03-04T21:50:09.323Z,95894.81
2023-03-04T21:52:37.480Z,95897.69
2023-03-04T21:55:06.148Z,95891.81
2023-03-04T21:57:35.617Z,95892.81
2023-03-04T22:00:05.484Z,95893.22
2023-03-04T22:02:39.771Z,95888.56
2023-03-04T22:05:08.277Z,95881.88
2023-03-04T22:07:36.395Z,95889.97
2023-03-04T22:10:06.693Z,95886.53
2023-03-04T22:12:36.437Z,95882.31
2023-03-04T22:15:04.751Z,95882.31
2023-03-04T22:17:32.868Z,95883.31
2023-03-04T22:20:02.615Z,95889.41
2023-03-04T22:22:31.323Z,95877.03
2023-03-04T22:25:00.500Z,95882.06
2023-03-04T22:27:28.560Z,95879.06
2023-03-04T22:29:58.403Z,95880.91
2023-03-04T22:32:26.583Z,95872.78
2023-03-04T22:34:54.660Z,95875.63
2023-03-04T22:37:22.765Z,95878.47
2023-03-04T22:39:51.104Z,95875.63
2023-03-04T22:42:19.200Z,95878.66
2023-03-04T22:44:47.296Z,95879.88
2023-03-04T22:47:16.719Z,95876.22
2023-03-04T22:49:47.485Z,95875.41
2023-03-04T22:52:15.648Z,95873.41
2023-03-04T22:54:44.022Z,95876.22
2023-03-04T22:57:12.070Z,95878.88
2023-03-04T22:59:40.118Z,95873.59
2023-03-04T23:02:08.369Z,95883.56
2023-03-04T23:04:37.813Z,95874.84
2023-03-04T23:07:06.385Z,95878.69
2023-03-04T23:09:34.465Z,95879.72
2023-03-04T23:12:02.664Z,95886.19
2023-03-04T23:14:30.737Z,95877.69
2023-03-04T23:16:59.066Z,95879.94
2023-03-04T23:19:27.173Z,95879.94
2023-03-04T23:21:56.871Z,95876.69
2023-03-04T23:24:26.682Z,95882.16
2023-03-04T23:26:54.746Z,95877.31
2023-03-04T23:29:23.059Z,95874.91
2023-03-04T23:31:51.492Z,95877.75
2023-03-04T23:34:19.850Z,95871.47
2023-03-04T23:36:47.861Z,95865.00
2023-03-04T23:39:17.304Z,95865.41
2023-03-04T23:41:45.434Z,95860.16
2023-03-04T23:44:13.808Z,95859.34
2023-03-04T23:46:41.907Z,95862.16
2023-03-04T23:49:10.520Z,95860.78
2023-03-04T23:51:40.819Z,95863.63
2023-03-04T23:54:08.928Z,95863.41
2023-03-04T23:56:38.395Z,95863.63
2023-03-04T23:59:07.708Z,95848.84
